createdAt,value
2022-10-23T00:01:39.919Z,13.97
2022-10-23T00:04:16.493Z,17.55
2022-10-23T00:06:43.815Z,12.57
2022-10-23T00:09:12.812Z,14.57
2022-10-23T00:11:41.689Z,14.65
2022-10-23T00:14:09.314Z,14.55
2022-10-23T00:16:37.141Z,11.80
2022-10-23T00:19:05.113Z,10.45
2022-10-23T00:21:32.335Z,10.02
2022-10-23T00:23:59.490Z,12.15
2022-10-23T00:26:27.157Z,15.55
2022-10-23T00:28:55.038Z,14.68
2022-10-23T00:31:23.773Z,15.60
2022-10-23T00:33:51.463Z,10.82
2022-10-23T00:36:21.397Z,14.00
2022-10-23T00:38:49.820Z,12.02
2022-10-23T00:41:23.240Z,12.52
2022-10-23T00:44:00.291Z,10.55
2022-10-23T00:46:27.791Z,13.13
2022-10-23T00:48:55.360Z,11.98
2022-10-23T00:51:22.618Z,10.32
2022-10-23T00:54:01.396Z,11.43
2022-10-23T00:56:43.886Z,11.60
2022-10-23T00:59:11.154Z,11.35
2022-10-23T01:01:38.312Z,12.20
2022-10-23T01:04:07.507Z,11.35
2022-10-23T01:06:57.829Z,13.45
2022-10-23T01:09:49.250Z,11.77
2022-10-23T01:12:37.910Z,14.80
2022-10-23T01:15:20.522Z,11.25
2022-10-23T01:20:45.500Z,11.68
2022-10-23T01:23:28.929Z,13.27
2022-10-23T01:26:15.451Z,12.43
2022-10-23T01:28:47.714Z,11.45
2022-10-23T01:31:23.127Z,12.98
2022-10-23T01:33:57.720Z,16.95
2022-10-23T01:36:30.805Z,21.42
2022-10-23T01:39:05.341Z,23.25
2022-10-23T01:44:29.792Z,23.25
2022-10-23T01:46:57.900Z,17.33
2022-10-23T01:49:28.767Z,21.40
2022-10-23T01:52:01.679Z,15.93
2022-10-23T01:54:32.764Z,16.20
2022-10-23T01:57:00.802Z,16.17
2022-10-23T01:59:35.470Z,18.85
2022-10-23T02:02:04.805Z,19.05
2022-10-23T02:04:39.936Z,18.67
2022-10-23T02:07:08.257Z,20.10
2022-10-23T02:09:35.455Z,22.80
2022-10-23T02:12:09.400Z,21.73
2022-10-23T02:14:51.799Z,17.55
2022-10-23T02:17:55.633Z,19.05
2022-10-23T02:20:48.364Z,21.17
2022-10-23T02:23:23.976Z,18.50
2022-10-23T02:26:04.060Z,21.85
2022-10-23T02:28:38.823Z,19.80
2022-10-23T02:31:12.724Z,20.35
2022-10-23T02:33:40.658Z,17.95
2022-10-23T02:36:08.198Z,22.63
2022-10-23T02:38:41.588Z,18.80
2022-10-23T02:41:27.307Z,20.15
2022-10-23T02:44:18.291Z,21.38
2022-10-23T02:46:50.273Z,21.23
2022-10-23T02:49:44.007Z,22.65
2022-10-23T02:52:27.165Z,24.48
2022-10-23T02:55:07.047Z,25.80
2022-10-23T02:58:00.084Z,27.20
2022-10-23T03:00:31.162Z,27.63
2022-10-23T03:03:02.621Z,22.13
2022-10-23T03:05:40.799Z,24.45
2022-10-23T03:08:14.142Z,25.98
2022-10-23T03:10:42.824Z,26.15
2022-10-23T03:13:11.412Z,30.80
2022-10-23T03:15:41.843Z,25.67
2022-10-23T03:18:12.778Z,26.23
2022-10-23T03:20:41.917Z,27.10
2022-10-23T03:23:13.216Z,20.67
2022-10-23T03:25:40.360Z,21.60
2022-10-23T03:28:07.389Z,29.80
2022-10-23T03:30:36.088Z,27.80
2022-10-23T03:33:03.216Z,25.08
2022-10-23T03:35:30.228Z,29.27
2022-10-23T03:37:57.352Z,24.17
2022-10-23T03:40:26.213Z,27.90
2022-10-23T03:42:53.382Z,26.70
2022-10-23T03:45:20.484Z,25.58
2022-10-23T03:47:50.801Z,27.10
2022-10-23T03:50:19.471Z,27.23
2022-10-23T03:52:46.628Z,21.88
2022-10-23T03:55:14.699Z,23.75
2022-10-23T03:57:41.767Z,22.75
2022-10-23T04:00:10.593Z,22.73
2022-10-23T04:02:44.117Z,24.88
2022-10-23T04:05:11.963Z,24.88
2022-10-23T04:07:41.241Z,27.10
2022-10-23T04:10:08.706Z,26.25
2022-10-23T04:12:35.955Z,22.35
2022-10-23T04:15:03.028Z,30.35
2022-10-23T04:17:30.509Z,20.48
2022-10-23T04:19:57.609Z,26.58
2022-10-23T04:22:27.506Z,26.40
2022-10-23T04:24:55.876Z,21.02
2022-10-23T04:27:23.444Z,25.63
2022-10-23T04:29:53.196Z,28.52
2022-10-23T04:32:22.645Z,26.10
2022-10-23T04:34:49.958Z,29.25
2022-10-23T04:37:17.056Z,26.60
2022-10-23T04:39:44.920Z,33.03
2022-10-23T04:42:14.169Z,27.88
2022-10-23T04:44:41.316Z,27.95
2022-10-23T04:47:08.413Z,34.63
2022-10-23T04:49:44.389Z,26.55
2022-10-23T04:52:20.214Z,35.75
2022-10-23T04:55:04.993Z,29.33
2022-10-23T04:57:41.284Z,33.85
2022-10-23T05:00:12.561Z,32.38
2022-10-23T05:02:45.399Z,26.25
2022-10-23T05:05:17.188Z,28.05
2022-10-23T05:08:18.084Z,26.95
2022-10-23T05:11:08.164Z,30.00
2022-10-23T05:13:42.606Z,29.90
2022-10-23T05:16:10.068Z,28.48
2022-10-23T05:18:46.868Z,30.33
2022-10-23T05:21:21.440Z,26.60
2022-10-23T05:23:50.930Z,29.10
2022-10-23T05:26:18.355Z,37.90
2022-10-23T05:28:47.666Z,25.60
2022-10-23T05:31:20.415Z,24.73
2022-10-23T05:33:50.999Z,21.90
2022-10-23T05:36:22.147Z,32.30
2022-10-23T05:38:54.693Z,21.38
2022-10-23T05:41:22.169Z,25.38
2022-10-23T05:43:49.295Z,25.13
2022-10-23T05:46:51.670Z,25.33
2022-10-23T05:49:37.037Z,26.73
2022-10-23T05:55:20.348Z,26.42
2022-10-23T05:58:03.421Z,27.58
2022-10-23T06:00:49.054Z,30.92
2022-10-23T06:03:37.216Z,23.05
2022-10-23T06:06:08.493Z,27.67
2022-10-23T06:08:43.672Z,24.85
2022-10-23T06:11:15.497Z,31.02
2022-10-23T06:13:51.165Z,29.58
2022-10-23T06:16:27.809Z,26.05
2022-10-23T06:18:57.673Z,29.58
2022-10-23T06:21:24.984Z,25.35
2022-10-23T06:23:55.862Z,30.65
2022-10-23T06:26:23.504Z,26.10
2022-10-23T06:28:56.996Z,27.98
2022-10-23T06:31:26.973Z,28.10
2022-10-23T06:33:57.032Z,32.53
2022-10-23T06:36:25.108Z,31.60
2022-10-23T06:38:56.720Z,27.67
2022-10-23T06:41:42.136Z,29.25
2022-10-23T06:44:12.376Z,27.58
2022-10-23T06:46:49.693Z,35.53
2022-10-23T06:49:45.816Z,29.70
2022-10-23T06:52:18.411Z,24.98
2022-10-23T06:54:56.080Z,31.23
2022-10-23T06:57:25.766Z,42.33
2022-10-23T06:59:53.176Z,26.85
2022-10-23T07:02:21.380Z,24.77
2022-10-23T07:04:49.458Z,28.58
2022-10-23T07:07:19.564Z,27.45
2022-10-23T07:09:48.917Z,33.47
2022-10-23T07:12:23.450Z,31.70
2022-10-23T07:15:00.569Z,32.72
2022-10-23T07:17:29.048Z,31.83
2022-10-23T07:19:58.869Z,32.97
2022-10-23T07:22:25.921Z,35.83
2022-10-23T07:25:14.173Z,32.97
2022-10-23T07:27:45.050Z,29.55
2022-10-23T07:30:13.528Z,29.48
2022-10-23T07:32:47.224Z,29.60
2022-10-23T07:35:37.144Z,26.25
2022-10-23T07:38:13.979Z,28.20
2022-10-23T07:40:47.679Z,34.72
2022-10-23T07:43:18.732Z,35.30
2022-10-23T07:45:49.994Z,34.08
2022-10-23T07:48:38.423Z,29.85
2022-10-23T07:51:10.644Z,36.15
2022-10-23T07:53:43.698Z,35.45
2022-10-23T07:56:32.532Z,30.70
2022-10-23T07:59:35.833Z,35.67
2022-10-23T08:02:13.248Z,40.40
2022-10-23T08:04:41.906Z,31.77
2022-10-23T08:07:24.491Z,38.58
2022-10-23T08:09:54.874Z,38.50
2022-10-23T08:12:25.066Z,45.85
2022-10-23T08:14:54.110Z,41.55
2022-10-23T08:17:23.967Z,49.83
2022-10-23T08:20:04.158Z,40.08
2022-10-23T08:22:39.129Z,34.05
2022-10-23T08:25:06.721Z,39.25
2022-10-23T08:27:33.905Z,37.20
2022-10-23T08:30:01.012Z,37.10
2022-10-23T08:32:31.078Z,43.75
2022-10-23T08:34:59.827Z,45.03
2022-10-23T08:37:30.059Z,43.85
2022-10-23T08:39:57.115Z,38.17
2022-10-23T08:43:03.231Z,37.45
2022-10-23T08:45:51.354Z,32.70
2022-10-23T08:48:52.679Z,41.53
2022-10-23T08:51:54.795Z,42.72
2022-10-23T08:54:24.518Z,43.80
2022-10-23T08:56:59.274Z,38.72
2022-10-23T08:59:39.949Z,39.38
2022-10-23T09:02:29.194Z,38.53
2022-10-23T09:04:58.431Z,40.30
2022-10-23T09:07:39.460Z,40.42
2022-10-23T09:10:33.328Z,38.35
2022-10-23T09:13:15.510Z,37.67
2022-10-23T09:15:53.020Z,37.80
2022-10-23T09:18:20.006Z,40.90
2022-10-23T09:20:47.393Z,38.20
2022-10-23T09:23:22.342Z,38.55
2022-10-23T09:25:58.006Z,40.90
2022-10-23T09:28:30.805Z,41.25
2022-10-23T09:31:12.590Z,40.47
2022-10-23T09:33:40.164Z,39.78
2022-10-23T09:36:12.634Z,39.53
2022-10-23T09:38:46.857Z,40.20
2022-10-23T09:41:19.936Z,41.75
2022-10-23T09:46:19.580Z,39.33
2022-10-23T09:49:00.945Z,41.72
2022-10-23T09:51:30.966Z,38.95
2022-10-23T09:54:01.728Z,41.22
2022-10-23T09:56:42.274Z,39.00
2022-10-23T09:59:15.231Z,51.00
2022-10-23T10:01:52.932Z,52.47
2022-10-23T10:04:48.943Z,42.60
2022-10-23T10:07:22.120Z,45.70
2022-10-23T10:13:02.162Z,43.72
2022-10-23T10:15:52.476Z,47.72
2022-10-23T10:18:38.341Z,42.20
2022-10-23T10:21:28.278Z,44.15
2022-10-23T10:24:27.392Z,50.92
2022-10-23T10:27:16.222Z,38.25
2022-10-23T10:30:01.903Z,49.15
2022-10-23T10:33:06.419Z,54.67
2022-10-23T10:36:00.935Z,47.22
2022-10-23T10:38:46.008Z,43.80
2022-10-23T10:41:48.251Z,44.90
2022-10-23T10:44:46.308Z,45.55
2022-10-23T10:47:26.205Z,45.40
2022-10-23T10:50:03.081Z,42.70
2022-10-23T10:52:53.309Z,47.83
2022-10-23T10:55:35.162Z,47.05
2022-10-23T10:58:22.463Z,45.72
2022-10-23T11:00:56.095Z,45.47
2022-10-23T11:03:40.268Z,48.10
2022-10-23T11:08:57.714Z,46.45
2022-10-23T11:11:37.403Z,46.33
2022-10-23T11:14:04.696Z,48.10
2022-10-23T11:16:37.230Z,45.13
2022-10-23T11:19:34.870Z,46.05
2022-10-23T11:22:30.289Z,53.80
2022-10-23T11:25:34.613Z,54.42
2022-10-23T11:28:47.464Z,49.00
2022-10-23T11:31:32.966Z,39.58
2022-10-23T11:34:34.327Z,42.33
2022-10-23T11:37:03.891Z,45.63
2022-10-23T11:39:33.604Z,56.83
2022-10-23T11:42:10.905Z,53.13
2022-10-23T11:44:49.230Z,58.88
2022-10-23T11:47:40.011Z,53.22
2022-10-23T11:50:07.580Z,50.13
2022-10-23T11:52:45.472Z,50.15
2022-10-23T11:55:21.801Z,54.13
2022-10-23T11:58:07.334Z,55.42
2022-10-23T12:00:40.306Z,56.90
2022-10-23T12:03:20.021Z,55.47
2022-10-23T12:05:47.505Z,52.30
2022-10-23T12:08:23.661Z,55.55
2022-10-23T12:10:55.748Z,57.33
2022-10-23T12:13:37.844Z,52.22
2022-10-23T12:16:09.662Z,52.65
2022-10-23T12:18:50.544Z,50.65
2022-10-23T12:21:28.201Z,48.97
2022-10-23T12:24:13.824Z,50.00
2022-10-23T12:26:51.422Z,56.55
2022-10-23T12:29:43.570Z,49.90
2022-10-23T12:32:41.237Z,44.80
2022-10-23T12:35:11.144Z,52.40
2022-10-23T12:37:51.681Z,44.40
2022-10-23T12:40:18.893Z,49.13
2022-10-23T12:42:54.248Z,61.35
2022-10-23T12:45:29.056Z,61.63
2022-10-23T12:47:56.721Z,53.08
2022-10-23T12:50:29.443Z,44.83
2022-10-23T12:53:01.181Z,47.22
2022-10-23T12:55:46.209Z,51.47
2022-10-23T12:58:24.527Z,54.15
2022-10-23T13:01:03.160Z,56.42
2022-10-23T13:03:31.983Z,58.00
2022-10-23T13:06:07.386Z,57.63
2022-10-23T13:08:41.181Z,58.63
2022-10-23T13:14:26.169Z,55.63
2022-10-23T13:17:00.252Z,60.97
2022-10-23T13:19:27.799Z,54.65
2022-10-23T13:21:55.129Z,59.22
2022-10-23T13:24:25.621Z,52.55
2022-10-23T13:26:52.917Z,50.55
2022-10-23T13:29:34.685Z,59.33
2022-10-23T13:32:34.217Z,59.33
2022-10-23T13:35:20.401Z,56.92
2022-10-23T13:37:49.282Z,53.22
2022-10-23T13:40:25.839Z,58.80
2022-10-23T13:42:57.418Z,52.38
2022-10-23T13:45:26.945Z,56.78
2022-10-23T13:47:54.808Z,51.80
2022-10-23T13:50:21.801Z,52.75
2022-10-23T13:52:52.850Z,55.67
2022-10-23T13:55:27.054Z,53.28
2022-10-23T13:57:54.290Z,54.38
2022-10-23T14:00:21.365Z,52.75
2022-10-23T14:02:51.416Z,50.35
2022-10-23T14:05:18.669Z,48.95
2022-10-23T14:07:45.994Z,48.47
2022-10-23T14:10:13.259Z,56.65
2022-10-23T14:12:41.879Z,56.13
2022-10-23T14:15:10.383Z,52.22
2022-10-23T14:17:37.640Z,51.13
2022-10-23T14:20:06.297Z,53.42
2022-10-23T14:22:33.663Z,53.70
2022-10-23T14:25:00.866Z,57.45
2022-10-23T14:27:29.548Z,53.00
2022-10-23T14:29:56.789Z,53.97
2022-10-23T14:32:26.284Z,52.53
2022-10-23T14:34:54.697Z,50.10
2022-10-23T14:37:22.683Z,52.13
2022-10-23T14:39:50.421Z,50.60
2022-10-23T14:42:17.986Z,48.53
2022-10-23T14:44:45.310Z,46.75
2022-10-23T14:47:12.455Z,42.60
2022-10-23T14:49:40.405Z,49.83
2022-10-23T14:52:10.413Z,52.28
2022-10-23T14:54:37.408Z,43.75
2022-10-23T14:57:04.691Z,49.00
2022-10-23T14:59:31.874Z,45.80
2022-10-23T15:02:01.670Z,50.90
2022-10-23T15:04:31.694Z,45.30
2022-10-23T15:07:01.401Z,42.25
2022-10-23T15:09:28.605Z,42.30
2022-10-23T15:11:55.700Z,47.10
2022-10-23T15:14:32.738Z,44.58
2022-10-23T15:16:59.837Z,45.33
2022-10-23T15:19:27.727Z,43.65
2022-10-23T15:21:54.900Z,42.97
2022-10-23T15:24:22.074Z,42.97
2022-10-23T15:26:50.316Z,54.25
2022-10-23T15:29:18.448Z,55.85
2022-10-23T15:32:05.354Z,44.97
2022-10-23T15:34:35.204Z,48.40
2022-10-23T15:37:02.276Z,51.85
2022-10-23T15:39:35.703Z,54.97
2022-10-23T15:42:07.178Z,53.15
2022-10-23T15:44:34.736Z,49.47
2022-10-23T15:47:01.938Z,56.45
2022-10-23T15:49:31.902Z,57.75
2022-10-23T15:51:59.621Z,39.05
2022-10-23T15:54:30.654Z,49.38
2022-10-23T15:57:01.007Z,52.72
2022-10-23T15:59:29.788Z,51.70
2022-10-23T16:01:58.121Z,52.30
2022-10-23T16:04:25.303Z,48.38
2022-10-23T16:06:52.431Z,44.50
2022-10-23T16:09:21.339Z,43.42
2022-10-23T16:11:48.409Z,49.63
2022-10-23T16:14:17.524Z,52.53
2022-10-23T16:16:44.815Z,43.67
2022-10-23T16:19:12.430Z,50.90
2022-10-23T16:21:41.071Z,46.97
2022-10-23T16:24:13.905Z,48.60
2022-10-23T16:26:42.191Z,45.00
2022-10-23T16:29:10.610Z,56.38
2022-10-23T16:31:37.819Z,50.53
2022-10-23T16:34:08.392Z,43.13
2022-10-23T16:36:35.591Z,48.08
2022-10-23T16:39:17.204Z,41.58
2022-10-23T16:42:03.005Z,41.30
2022-10-23T16:47:24.214Z,38.10
2022-10-23T16:49:51.328Z,37.65
2022-10-23T16:52:18.433Z,40.20
2022-10-23T16:54:45.486Z,40.85
2022-10-23T16:57:12.596Z,37.35
2022-10-23T16:59:39.791Z,44.00
2022-10-23T17:02:07.102Z,38.45
2022-10-23T17:04:35.947Z,34.53
2022-10-23T17:07:04.302Z,38.22
2022-10-23T17:09:32.054Z,39.28
2022-10-23T17:12:00.268Z,34.88
2022-10-23T17:14:29.469Z,35.33
2022-10-23T17:16:59.548Z,36.67
2022-10-23T17:22:16.675Z,39.78
2022-10-23T17:24:47.374Z,38.35
2022-10-23T17:27:17.522Z,32.50
2022-10-23T17:29:44.553Z,35.20
2022-10-23T17:32:11.654Z,37.45
2022-10-23T17:34:40.652Z,33.88
2022-10-23T17:37:08.076Z,33.88
2022-10-23T17:39:35.260Z,33.47
2022-10-23T17:42:02.268Z,32.08
2022-10-23T17:44:29.405Z,34.55
2022-10-23T17:46:58.854Z,30.67
2022-10-23T17:49:26.104Z,31.42
2022-10-23T17:51:55.387Z,33.08
2022-10-23T17:54:23.484Z,31.50
2022-10-23T17:56:53.352Z,29.58
2022-10-23T17:59:20.453Z,28.60
2022-10-23T18:01:49.024Z,31.23
2022-10-23T18:04:18.790Z,30.38
2022-10-23T18:06:52.716Z,29.83
2022-10-23T18:09:21.490Z,31.15
2022-10-23T18:11:51.802Z,28.73
2022-10-23T18:14:21.146Z,33.47
2022-10-23T18:16:49.254Z,32.75
2022-10-23T18:19:18.419Z,33.53
2022-10-23T18:21:46.712Z,30.38
2022-10-23T18:24:14.510Z,29.95
2022-10-23T18:26:44.783Z,32.33
2022-10-23T18:29:19.640Z,28.85
2022-10-23T18:31:48.422Z,31.65
2022-10-23T18:34:21.500Z,30.60
2022-10-23T18:39:22.697Z,34.65
2022-10-23T18:41:55.773Z,30.48
2022-10-23T18:46:51.328Z,28.67
2022-10-23T18:49:19.781Z,34.35
2022-10-23T18:51:47.491Z,31.55
2022-10-23T18:54:16.235Z,31.10
2022-10-23T18:56:44.067Z,31.30
2022-10-23T18:59:15.016Z,29.58
2022-10-23T19:01:43.423Z,32.42
2022-10-23T19:04:12.787Z,31.00
2022-10-23T19:06:39.935Z,34.78
2022-10-23T19:09:09.182Z,31.90
2022-10-23T19:11:37.297Z,33.35
2022-10-23T19:14:05.742Z,28.27
2022-10-23T19:16:42.149Z,34.20
2022-10-23T19:19:18.422Z,29.80
2022-10-23T19:21:46.420Z,29.98
2022-10-23T19:24:22.443Z,34.70
2022-10-23T19:26:52.513Z,32.45
2022-10-23T19:29:22.606Z,33.75
2022-10-23T19:31:50.453Z,30.27
2022-10-23T19:34:22.732Z,34.22
2022-10-23T19:36:50.858Z,32.30
2022-10-23T19:39:18.892Z,28.27
2022-10-23T19:41:46.760Z,31.65
2022-10-23T19:44:15.234Z,28.35
2022-10-23T19:46:42.229Z,27.95
2022-10-23T19:49:10.028Z,27.25
2022-10-23T19:51:37.801Z,29.83
2022-10-23T19:54:05.759Z,29.45
2022-10-23T19:56:36.762Z,40.38
2022-10-23T19:59:08.051Z,30.70
2022-10-23T20:01:35.608Z,34.92
2022-10-23T20:04:02.836Z,25.38
2022-10-23T20:06:34.722Z,28.63
2022-10-23T20:09:05.161Z,26.60
2022-10-23T20:11:32.372Z,26.05
2022-10-23T20:13:59.796Z,22.95
2022-10-23T20:16:33.045Z,26.25
2022-10-23T20:19:02.962Z,21.50
2022-10-23T20:21:30.482Z,21.05
2022-10-23T20:23:58.811Z,22.52
2022-10-23T20:26:26.268Z,18.10
2022-10-23T20:28:55.342Z,16.67
2022-10-23T20:31:24.794Z,18.02
2022-10-23T20:33:52.798Z,14.10
2022-10-23T20:36:25.874Z,14.73
2022-10-23T20:38:53.150Z,14.98
2022-10-23T20:41:20.908Z,16.83
2022-10-23T20:43:48.096Z,14.55
2022-10-23T20:46:15.145Z,15.57
2022-10-23T20:48:44.754Z,14.48
2022-10-23T20:51:14.355Z,11.40
2022-10-23T20:53:42.251Z,15.68
2022-10-23T20:56:14.126Z,15.27
2022-10-23T20:58:41.261Z,14.23
2022-10-23T21:01:10.827Z,13.43
2022-10-23T21:03:38.406Z,14.02
2022-10-23T21:06:14.703Z,15.20
2022-10-23T21:08:41.794Z,16.35
2022-10-23T21:11:12.379Z,16.02
2022-10-23T21:13:39.520Z,16.20
2022-10-23T21:16:17.034Z,14.10
2022-10-23T21:18:46.336Z,15.80
2022-10-23T21:21:19.411Z,12.60
2022-10-23T21:23:48.039Z,16.45
2022-10-23T21:26:16.800Z,14.82
2022-10-23T21:28:56.283Z,13.27
2022-10-23T21:31:28.150Z,16.83
2022-10-23T21:33:55.270Z,13.18
2022-10-23T21:36:24.134Z,15.40
2022-10-23T21:38:54.108Z,13.65
2022-10-23T21:41:24.112Z,16.02
2022-10-23T21:43:58.857Z,16.35
2022-10-23T21:46:26.745Z,16.13
2022-10-23T21:48:53.877Z,17.25
2022-10-23T21:51:29.371Z,20.58
2022-10-23T21:53:57.147Z,13.88
2022-10-23T21:56:26.651Z,14.75
2022-10-23T21:58:53.812Z,12.32
2022-10-23T22:01:21.535Z,12.93
2022-10-23T22:03:49.142Z,14.82
2022-10-23T22:06:28.261Z,15.50
2022-10-23T22:08:57.363Z,11.70
2022-10-23T22:11:24.460Z,14.27
2022-10-23T22:13:51.769Z,13.20
2022-10-23T22:16:20.352Z,16.00
2022-10-23T22:18:47.893Z,13.98
2022-10-23T22:21:21.322Z,14.80
2022-10-23T22:23:49.799Z,14.88
2022-10-23T22:26:29.264Z,14.77
2022-10-23T22:28:59.441Z,13.38
2022-10-23T22:31:30.063Z,16.42
2022-10-23T22:33:58.285Z,17.40
2022-10-23T22:36:26.399Z,16.13
2022-10-23T22:38:54.835Z,16.05
2022-10-23T22:41:21.918Z,17.90
2022-10-23T22:43:53.566Z,18.13
2022-10-23T22:46:25.778Z,16.42
2022-10-23T22:48:52.853Z,20.30
2022-10-23T22:51:21.618Z,22.70
2022-10-23T22:53:48.979Z,17.00
2022-10-23T22:56:21.681Z,20.58
2022-10-23T22:58:49.608Z,22.15
2022-10-23T23:01:22.948Z,21.65
2022-10-23T23:03:50.996Z,19.15
2022-10-23T23:06:19.570Z,19.75
2022-10-23T23:08:46.681Z,21.95
2022-10-23T23:11:16.714Z,19.88
2022-10-23T23:13:44.154Z,19.27
2022-10-23T23:16:37.650Z,17.00
2022-10-23T23:21:32.288Z,15.77
2022-10-23T23:23:59.377Z,17.55
2022-10-23T23:26:26.710Z,25.10
2022-10-23T23:28:54.948Z,15.85
2022-10-23T23:31:24.896Z,16.50
2022-10-23T23:33:53.184Z,19.00
2022-10-23T23:36:23.743Z,15.85
2022-10-23T23:38:51.000Z,16.83
2022-10-23T23:41:19.968Z,16.35
2022-10-23T23:43:47.301Z,15.32
2022-10-23T23:46:14.776Z,14.63
2022-10-23T23:48:52.322Z,16.35
2022-10-23T23:51:25.383Z,15.27
2022-10-23T23:53:53.416Z,13.15
2022-10-23T23:56:21.380Z,14.32
2022-10-23T23:58:48.785Z,15.15
